createdAt,value
2018-11-14T00:31:38.532Z,9.50
2018-11-14T01:01:29.741Z,9.20
2018-11-14T01:07:05.552Z,9.60
2018-11-14T01:09:48.854Z,9.40
2018-11-14T01:18:52.963Z,9.40
2018-11-14T01:21:35.198Z,9.40
2018-11-14T01:24:27.478Z,9.30
2018-11-14T01:27:16.779Z,9.10
2018-11-14T01:52:09.763Z,8.50
2018-11-14T01:57:38.668Z,8.50
2018-11-14T02:03:12.555Z,8.50
2018-11-14T02:05:58.952Z,8.40
2018-11-14T02:08:36.589Z,8.50
2018-11-14T02:11:24.104Z,8.50
2018-11-14T02:14:02.076Z,8.40
2018-11-14T02:24:57.087Z,8.30
2018-11-14T02:27:41.236Z,8.10
2018-11-14T02:33:12.006Z,7.90
2018-11-14T02:38:30.985Z,8.20
2018-11-14T02:41:18.297Z,8.20
2018-11-14T02:44:06.142Z,8.20
2018-11-14T02:46:51.273Z,8.10
2018-11-14T02:49:33.717Z,8.10
2018-11-14T02:52:10.511Z,8.20
2018-11-14T02:54:48.228Z,8.20
2018-11-14T02:57:26.288Z,8.00
2018-11-14T03:08:42.826Z,9.50
2018-11-14T03:11:23.752Z,9.50
2018-11-14T03:14:07.685Z,7.60
2018-11-14T03:16:49.934Z,7.80
2018-11-14T03:19:31.878Z,7.80
2018-11-14T03:24:50.885Z,7.70
2018-11-14T03:27:29.030Z,7.90
2018-11-14T03:30:09.210Z,7.70
2018-11-14T03:32:42.505Z,7.60
2018-11-14T03:35:19.388Z,7.50
2018-11-14T03:38:07.735Z,7.40
2018-11-14T03:40:40.963Z,7.50
2018-11-14T03:43:12.505Z,6.40
2018-11-14T03:45:46.902Z,7.60
2018-11-14T03:48:19.806Z,7.60
2018-11-14T03:50:51.515Z,7.60
2018-11-14T03:53:26.403Z,7.60
2018-11-14T03:56:07.540Z,7.60
2018-11-14T04:01:43.518Z,7.60
2018-11-14T04:04:27.090Z,9.00
2018-11-14T04:07:01.724Z,7.60
2018-11-14T04:09:43.303Z,7.70
2018-11-14T04:12:21.579Z,7.70
2018-11-14T04:17:57.421Z,7.70
2018-11-14T04:20:36.299Z,7.70
2018-11-14T04:34:36.225Z,7.30
2018-11-14T04:40:10.094Z,7.50
2018-11-14T04:42:56.716Z,7.50
2018-11-14T04:48:27.750Z,7.50
2018-11-14T04:53:58.757Z,7.40
2018-11-14T05:02:32.852Z,7.50
2018-11-14T05:08:06.916Z,7.30
2018-11-14T05:19:08.211Z,7.30
2018-11-14T05:21:59.807Z,7.30
2018-11-14T05:27:24.108Z,7.40
2018-11-14T05:32:51.046Z,7.40
2018-11-14T05:35:34.709Z,7.40
2018-11-14T05:45:22.628Z,7.50
2018-11-14T05:48:06.691Z,7.30
2018-11-14T05:50:47.832Z,7.30
2018-11-14T06:02:16.573Z,6.90
2018-11-14T06:05:01.447Z,6.90
2018-11-14T08:19:40.722Z,8.10
2018-11-14T08:24:54.910Z,7.80
2018-11-14T17:00:06.670Z,9.70
2018-11-14T17:42:23.908Z,9.20
2018-11-14T17:55:41.537Z,9.00
2018-11-14T17:58:10.483Z,9.00
2018-11-14T18:00:39.287Z,9.00
2018-11-14T18:03:08.130Z,9.00
2018-11-14T18:05:36.963Z,9.00
2018-11-14T18:08:05.956Z,8.90
2018-11-14T18:10:34.979Z,8.90
2018-11-14T18:13:03.931Z,8.80
2018-11-14T18:15:33.641Z,8.80
2018-11-14T18:18:02.773Z,8.80
2018-11-14T18:20:32.706Z,9.00
2018-11-14T18:23:01.979Z,8.70
2018-11-14T18:25:30.742Z,8.70
2018-11-14T18:27:59.678Z,8.70
2018-11-14T18:30:30.181Z,8.60
2018-11-14T18:33:00.194Z,8.60
2018-11-14T18:35:29.252Z,8.60
2018-11-14T18:37:59.147Z,8.50
2018-11-14T18:40:29.506Z,8.60
2018-11-14T18:42:58.255Z,8.50
2018-11-14T18:45:28.651Z,8.50
2018-11-14T18:47:58.582Z,8.50
2018-11-14T18:50:27.690Z,8.50
2018-11-14T18:52:56.526Z,8.50
2018-11-14T18:55:26.832Z,8.50
2018-11-14T18:57:55.859Z,8.50
2018-11-14T19:00:25.890Z,8.40
2018-11-14T19:02:54.612Z,8.40
2018-11-14T19:05:23.327Z,8.40
2018-11-14T19:07:52.064Z,8.40
2018-11-14T19:10:25.526Z,8.40
2018-11-14T19:12:54.455Z,8.30
2018-11-14T19:15:25.243Z,8.30
2018-11-14T19:17:54.064Z,8.30
2018-11-14T19:20:25.017Z,8.20
2018-11-14T19:22:54.477Z,8.20
2018-11-14T19:25:24.605Z,8.20
2018-11-14T19:27:53.404Z,8.20
2018-11-14T19:30:26.405Z,8.00
2018-11-14T19:32:55.752Z,8.00
2018-11-14T19:35:25.679Z,7.90
2018-11-14T19:37:55.617Z,7.90
2018-11-14T19:40:26.392Z,7.80
2018-11-14T19:42:56.775Z,7.80
2018-11-14T19:45:27.773Z,7.80
2018-11-14T19:47:56.939Z,7.80
2018-11-14T19:50:26.062Z,7.70
2018-11-14T19:52:54.785Z,7.60
2018-11-14T19:55:24.753Z,7.60
2018-11-14T19:57:54.727Z,7.50
2018-11-14T20:00:27.564Z,7.50
2018-11-14T20:02:56.425Z,7.50
2018-11-14T20:05:25.378Z,7.40
2018-11-14T20:07:54.151Z,9.20
2018-11-14T20:10:24.434Z,7.30
2018-11-14T20:12:53.417Z,7.40
2018-11-14T20:15:23.467Z,7.40
2018-11-14T20:17:52.497Z,7.40
2018-11-14T20:20:26.436Z,7.30
2018-11-14T20:22:55.744Z,7.30
2018-11-14T20:25:24.709Z,7.30
2018-11-14T20:27:53.685Z,7.30
2018-11-14T20:30:24.820Z,7.30
2018-11-14T20:32:54.327Z,7.30
2018-11-14T20:35:23.933Z,7.30
2018-11-14T20:37:53.611Z,6.10
2018-11-14T20:40:22.761Z,7.30
2018-11-14T20:42:53.776Z,7.20
2018-11-14T20:45:27.456Z,7.30
2018-11-14T20:47:56.545Z,7.30
2018-11-14T20:50:26.047Z,7.30
2018-11-14T20:52:57.550Z,7.40
2018-11-14T20:55:26.564Z,7.40
2018-11-14T20:57:55.718Z,7.40
2018-11-14T21:00:25.791Z,7.40
2018-11-14T21:02:54.680Z,7.40
2018-11-14T21:05:24.798Z,7.40
2018-11-14T21:07:54.006Z,7.30
2018-11-14T21:10:25.270Z,7.30
2018-11-14T21:12:54.610Z,7.30
2018-11-14T21:15:24.823Z,7.30
2018-11-14T21:17:54.886Z,7.20
2018-11-14T21:20:23.656Z,7.20
2018-11-14T21:22:52.673Z,7.20
2018-11-14T21:25:22.220Z,7.30
2018-11-14T21:27:51.483Z,7.30
2018-11-14T21:30:21.542Z,7.40
2018-11-14T21:32:50.332Z,7.40
2018-11-14T21:35:22.493Z,7.40
2018-11-14T21:37:52.608Z,7.40
2018-11-14T21:40:21.338Z,7.30
2018-11-14T21:42:50.118Z,8.60
2018-11-14T21:45:20.709Z,7.00
2018-11-14T21:47:54.513Z,7.10
2018-11-14T21:50:24.660Z,7.20
2018-11-14T21:52:55.630Z,8.60
2018-11-14T21:55:24.424Z,7.20
2018-11-14T21:57:53.192Z,6.50
2018-11-14T22:00:40.716Z,6.10
2018-11-14T22:03:10.102Z,6.00
2018-11-14T22:05:39.239Z,6.10
2018-11-14T22:08:10.662Z,6.50
2018-11-14T22:10:42.325Z,6.70
2018-11-14T22:13:11.131Z,6.70
2018-11-14T22:15:39.906Z,6.90
2018-11-14T22:18:08.674Z,6.50
2018-11-14T22:20:37.452Z,6.00
2018-11-14T22:23:06.210Z,5.80
2018-11-14T22:25:34.973Z,6.00
2018-11-14T22:28:03.916Z,6.20
2018-11-14T22:30:33.465Z,6.40
2018-11-14T22:33:02.292Z,6.60
2018-11-14T22:35:32.164Z,6.30
2018-11-14T22:38:00.936Z,6.50
2018-11-14T22:40:30.875Z,6.60
2018-11-14T22:42:59.622Z,6.60
2018-11-14T22:45:29.753Z,6.70
2018-11-14T22:47:59.868Z,6.70
2018-11-14T22:50:28.646Z,6.30
2018-11-14T22:52:57.375Z,5.90
2018-11-14T22:55:26.684Z,5.80
2018-11-14T22:57:55.782Z,5.70
2018-11-14T23:00:33.849Z,5.30
2018-11-14T23:03:03.664Z,5.10
2018-11-14T23:05:32.647Z,5.00
2018-11-14T23:08:01.667Z,5.00
2018-11-14T23:10:30.515Z,5.30
2018-11-14T23:12:59.236Z,5.70
2018-11-14T23:15:30.394Z,5.90
2018-11-14T23:17:59.179Z,6.00
2018-11-14T23:20:29.157Z,5.00
2018-11-14T23:22:57.969Z,6.20
2018-11-14T23:25:26.994Z,6.30
2018-11-14T23:27:56.353Z,6.30
2018-11-14T23:30:27.886Z,6.30
2018-11-14T23:32:58.473Z,6.30
2018-11-14T23:35:28.593Z,6.30
2018-11-14T23:37:58.698Z,6.30
2018-11-14T23:40:27.572Z,6.30
2018-11-14T23:42:56.375Z,6.30
2018-11-14T23:45:28.213Z,6.20
2018-11-14T23:47:57.004Z,6.10
2018-11-14T23:50:28.104Z,6.00
2018-11-14T23:52:57.726Z,6.00
2018-11-14T23:55:27.074Z,6.00
2018-11-14T23:57:56.207Z,5.80
